sensor_id;sensor_type;location;lat;lon;timestamp;P1;durP1;ratioP1;P2;durP2;ratioP2
53313;SDS011;39202;51.468;7.146;2023-02-28T00:04:21;1.30;;;1.20;;
53313;SDS011;39202;51.468;7.146;2023-02-28T00:09:22;1.15;;;1.05;;
53313;SDS011;39202;51.468;7.146;2023-02-28T00:14:24;0.90;;;0.90;;
53313;SDS011;39202;51.468;7.146;2023-02-28T00:19:27;1.10;;;1.10;;
53313;SDS011;39202;51.468;7.146;2023-02-28T00:24:29;1.00;;;1.00;;
53313;SDS011;39202;51.468;7.146;2023-02-28T00:29:31;1.13;;;1.05;;
53313;SDS011;39202;51.468;7.146;2023-02-28T00:34:34;1.10;;;1.10;;
53313;SDS011;39202;51.468;7.146;2023-02-28T00:39:37;1.00;;;1.00;;
53313;SDS011;39202;51.468;7.146;2023-02-28T00:44:40;1.05;;;1.05;;
53313;SDS011;39202;51.468;7.146;2023-02-28T00:49:43;1.00;;;1.00;;
53313;SDS011;39202;51.468;7.146;2023-02-28T00:54:44;1.00;;;1.00;;
53313;SDS011;39202;51.468;7.146;2023-02-28T00:59:46;1.15;;;1.15;;
53313;SDS011;39202;51.468;7.146;2023-02-28T01:04:49;1.08;;;1.08;;
53313;SDS011;39202;51.468;7.146;2023-02-28T01:14:53;1.30;;;1.20;;
53313;SDS011;39202;51.468;7.146;2023-02-28T01:19:56;1.13;;;1.13;;
53313;SDS011;39202;51.468;7.146;2023-02-28T01:24:58;1.10;;;1.10;;
53313;SDS011;39202;51.468;7.146;2023-02-28T01:30:00;1.00;;;1.00;;
53313;SDS011;39202;51.468;7.146;2023-02-28T01:35:03;1.10;;;1.10;;
53313;SDS011;39202;51.468;7.146;2023-02-28T01:40:05;1.20;;;1.20;;
53313;SDS011;39202;51.468;7.146;2023-02-28T01:45:18;0.90;;;0.90;;
53313;SDS011;39202;51.468;7.146;2023-02-28T01:50:24;0.93;;;0.93;;
53313;SDS011;39202;51.468;7.146;2023-02-28T01:55:30;0.90;;;0.90;;
53313;SDS011;39202;51.468;7.146;2023-02-28T02:00:33;1.13;;;1.10;;
53313;SDS011;39202;51.468;7.146;2023-02-28T02:05:37;1.08;;;1.08;;
53313;SDS011;39202;51.468;7.146;2023-02-28T02:10:40;0.88;;;0.88;;
53313;SDS011;39202;51.468;7.146;2023-02-28T02:15:44;1.00;;;1.00;;
53313;SDS011;39202;51.468;7.146;2023-02-28T02:26:52;0.90;;;0.90;;
53313;SDS011;39202;51.468;7.146;2023-02-28T02:37:37;0.82;;;0.82;;
53313;SDS011;39202;51.468;7.146;2023-02-28T02:42:42;1.17;;;1.17;;
53313;SDS011;39202;51.468;7.146;2023-02-28T02:47:50;1.10;;;1.10;;
53313;SDS011;39202;51.468;7.146;2023-02-28T02:52:56;0.93;;;0.93;;
53313;SDS011;39202;51.468;7.146;2023-02-28T02:58:02;1.00;;;1.00;;
53313;SDS011;39202;51.468;7.146;2023-02-28T03:03:07;1.50;;;1.10;;
53313;SDS011;39202;51.468;7.146;2023-02-28T03:08:13;0.98;;;0.98;;
53313;SDS011;39202;51.468;7.146;2023-02-28T03:13:19;0.80;;;0.80;;
53313;SDS011;39202;51.468;7.146;2023-02-28T03:18:40;0.88;;;0.88;;
53313;SDS011;39202;51.468;7.146;2023-02-28T03:23:53;1.00;;;1.00;;
53313;SDS011;39202;51.468;7.146;2023-02-28T03:29:04;0.82;;;0.82;;
53313;SDS011;39202;51.468;7.146;2023-02-28T03:34:14;0.90;;;0.90;;
53313;SDS011;39202;51.468;7.146;2023-02-28T03:39:23;0.98;;;0.98;;
53313;SDS011;39202;51.468;7.146;2023-02-28T03:44:30;0.90;;;0.90;;
53313;SDS011;39202;51.468;7.146;2023-02-28T03:49:36;0.80;;;0.80;;
53313;SDS011;39202;51.468;7.146;2023-02-28T03:54:46;1.00;;;1.00;;
53313;SDS011;39202;51.468;7.146;2023-02-28T03:59:53;0.70;;;0.70;;
53313;SDS011;39202;51.468;7.146;2023-02-28T04:04:57;0.90;;;0.90;;
53313;SDS011;39202;51.468;7.146;2023-02-28T04:10:02;0.82;;;0.82;;
53313;SDS011;39202;51.468;7.146;2023-02-28T04:15:05;0.75;;;0.75;;
53313;SDS011;39202;51.468;7.146;2023-02-28T04:20:08;1.00;;;1.00;;
53313;SDS011;39202;51.468;7.146;2023-02-28T04:25:13;1.00;;;1.00;;
53313;SDS011;39202;51.468;7.146;2023-02-28T04:30:15;0.75;;;0.75;;
53313;SDS011;39202;51.468;7.146;2023-02-28T04:35:17;0.77;;;0.77;;
53313;SDS011;39202;51.468;7.146;2023-02-28T04:40:20;0.80;;;0.80;;
53313;SDS011;39202;51.468;7.146;2023-02-28T04:45:21;1.02;;;1.02;;
53313;SDS011;39202;51.468;7.146;2023-02-28T04:50:23;0.77;;;0.77;;
53313;SDS011;39202;51.468;7.146;2023-02-28T04:55:26;0.70;;;0.70;;
53313;SDS011;39202;51.468;7.146;2023-02-28T05:00:28;0.80;;;0.80;;
53313;SDS011;39202;51.468;7.146;2023-02-28T05:05:30;0.80;;;0.80;;
53313;SDS011;39202;51.468;7.146;2023-02-28T05:10:33;0.88;;;0.88;;
53313;SDS011;39202;51.468;7.146;2023-02-28T05:15:34;0.80;;;0.80;;
53313;SDS011;39202;51.468;7.146;2023-02-28T05:20:36;0.77;;;0.77;;
53313;SDS011;39202;51.468;7.146;2023-02-28T05:25:39;0.80;;;0.80;;
53313;SDS011;39202;51.468;7.146;2023-02-28T05:30:41;0.75;;;0.75;;
53313;SDS011;39202;51.468;7.146;2023-02-28T05:35:43;0.80;;;0.80;;
53313;SDS011;39202;51.468;7.146;2023-02-28T05:40:46;0.88;;;0.80;;
53313;SDS011;39202;51.468;7.146;2023-02-28T05:45:48;1.00;;;1.00;;
53313;SDS011;39202;51.468;7.146;2023-02-28T05:50:49;0.73;;;0.73;;
53313;SDS011;39202;51.468;7.146;2023-02-28T05:55:52;0.80;;;0.80;;
53313;SDS011;39202;51.468;7.146;2023-02-28T06:00:54;0.90;;;0.90;;
53313;SDS011;39202;51.468;7.146;2023-02-28T06:05:56;0.77;;;0.73;;
53313;SDS011;39202;51.468;7.146;2023-02-28T06:10:59;0.90;;;0.90;;
53313;SDS011;39202;51.468;7.146;2023-02-28T06:16:04;0.80;;;0.80;;
53313;SDS011;39202;51.468;7.146;2023-02-28T06:21:07;0.82;;;0.82;;
53313;SDS011;39202;51.468;7.146;2023-02-28T06:26:10;0.73;;;0.73;;
53313;SDS011;39202;51.468;7.146;2023-02-28T06:31:13;0.80;;;0.80;;
53313;SDS011;39202;51.468;7.146;2023-02-28T06:36:16;0.73;;;0.73;;
53313;SDS011;39202;51.468;7.146;2023-02-28T06:41:19;1.05;;;0.60;;
53313;SDS011;39202;51.468;7.146;2023-02-28T06:46:21;0.70;;;0.70;;
53313;SDS011;39202;51.468;7.146;2023-02-28T06:51:23;0.88;;;0.88;;
53313;SDS011;39202;51.468;7.146;2023-02-28T06:56:28;1.33;;;1.00;;
53313;SDS011;39202;51.468;7.146;2023-02-28T07:01:30;1.70;;;1.10;;
53313;SDS011;39202;51.468;7.146;2023-02-28T07:06:32;1.48;;;1.05;;
53313;SDS011;39202;51.468;7.146;2023-02-28T07:11:35;2.28;;;1.42;;
53313;SDS011;39202;51.468;7.146;2023-02-28T07:16:37;2.05;;;1.30;;
53313;SDS011;39202;51.468;7.146;2023-02-28T07:21:39;2.88;;;1.80;;
53313;SDS011;39202;51.468;7.146;2023-02-28T07:26:42;2.78;;;1.58;;
53313;SDS011;39202;51.468;7.146;2023-02-28T07:31:44;5.00;;;1.95;;
53313;SDS011;39202;51.468;7.146;2023-02-28T07:36:46;7.78;;;2.90;;
53313;SDS011;39202;51.468;7.146;2023-02-28T07:41:49;5.25;;;2.88;;
53313;SDS011;39202;51.468;7.146;2023-02-28T07:46:51;9.18;;;3.53;;
53313;SDS011;39202;51.468;7.146;2023-02-28T07:51:53;5.93;;;2.95;;
53313;SDS011;39202;51.468;7.146;2023-02-28T07:56:56;7.22;;;2.70;;
53313;SDS011;39202;51.468;7.146;2023-02-28T08:01:58;3.90;;;2.25;;
53313;SDS011;39202;51.468;7.146;2023-02-28T08:07:00;4.75;;;2.20;;
53313;SDS011;39202;51.468;7.146;2023-02-28T08:12:03;5.95;;;2.75;;
53313;SDS011;39202;51.468;7.146;2023-02-28T08:17:05;3.00;;;1.73;;
53313;SDS011;39202;51.468;7.146;2023-02-28T08:22:07;3.22;;;2.15;;
53313;SDS011;39202;51.468;7.146;2023-02-28T08:27:10;3.60;;;2.13;;
53313;SDS011;39202;51.468;7.146;2023-02-28T08:32:13;4.40;;;2.10;;
53313;SDS011;39202;51.468;7.146;2023-02-28T08:37:14;5.43;;;2.10;;
53313;SDS011;39202;51.468;7.146;2023-02-28T08:42:18;3.95;;;2.28;;
53313;SDS011;39202;51.468;7.146;2023-02-28T08:47:20;3.60;;;2.15;;
53313;SDS011;39202;51.468;7.146;2023-02-28T08:52:22;4.07;;;2.22;;
53313;SDS011;39202;51.468;7.146;2023-02-28T08:57:25;3.75;;;1.95;;
53313;SDS011;39202;51.468;7.146;2023-02-28T09:02:27;2.83;;;1.88;;
53313;SDS011;39202;51.468;7.146;2023-02-28T09:07:29;4.25;;;2.17;;
53313;SDS011;39202;51.468;7.146;2023-02-28T09:12:33;2.55;;;1.70;;
53313;SDS011;39202;51.468;7.146;2023-02-28T09:17:35;3.33;;;1.98;;
53313;SDS011;39202;51.468;7.146;2023-02-28T09:22:37;3.15;;;1.98;;
53313;SDS011;39202;51.468;7.146;2023-02-28T09:27:40;1.98;;;1.58;;
53313;SDS011;39202;51.468;7.146;2023-02-28T09:32:42;3.28;;;2.20;;
53313;SDS011;39202;51.468;7.146;2023-02-28T09:37:52;2.92;;;1.88;;
53313;SDS011;39202;51.468;7.146;2023-02-28T09:42:55;3.33;;;1.73;;
53313;SDS011;39202;51.468;7.146;2023-02-28T09:47:59;2.53;;;2.00;;
53313;SDS011;39202;51.468;7.146;2023-02-28T09:53:06;2.85;;;1.60;;
53313;SDS011;39202;51.468;7.146;2023-02-28T09:58:18;3.38;;;1.70;;
53313;SDS011;39202;51.468;7.146;2023-02-28T10:03:25;1.98;;;1.63;;
53313;SDS011;39202;51.468;7.146;2023-02-28T10:08:32;2.53;;;1.63;;
53313;SDS011;39202;51.468;7.146;2023-02-28T10:13:39;1.85;;;1.48;;
53313;SDS011;39202;51.468;7.146;2023-02-28T10:18:51;2.90;;;1.70;;
53313;SDS011;39202;51.468;7.146;2023-02-28T10:23:59;2.10;;;1.50;;
53313;SDS011;39202;51.468;7.146;2023-02-28T10:29:08;2.28;;;1.45;;
53313;SDS011;39202;51.468;7.146;2023-02-28T10:34:10;2.15;;;1.50;;
53313;SDS011;39202;51.468;7.146;2023-02-28T10:44:39;1.83;;;1.70;;
53313;SDS011;39202;51.468;7.146;2023-02-28T10:49:45;2.47;;;1.60;;
53313;SDS011;39202;51.468;7.146;2023-02-28T10:54:49;3.30;;;1.55;;
53313;SDS011;39202;51.468;7.146;2023-02-28T10:59:52;1.45;;;1.35;;
53313;SDS011;39202;51.468;7.146;2023-02-28T11:05:25;1.80;;;1.50;;
53313;SDS011;39202;51.468;7.146;2023-02-28T11:10:28;1.67;;;1.30;;
53313;SDS011;39202;51.468;7.146;2023-02-28T11:15:35;1.58;;;1.40;;
53313;SDS011;39202;51.468;7.146;2023-02-28T11:20:37;1.38;;;1.27;;
53313;SDS011;39202;51.468;7.146;2023-02-28T11:25:40;2.47;;;1.48;;
53313;SDS011;39202;51.468;7.146;2023-02-28T11:30:59;2.17;;;1.50;;
53313;SDS011;39202;51.468;7.146;2023-02-28T11:36:03;1.45;;;1.30;;
53313;SDS011;39202;51.468;7.146;2023-02-28T11:46:35;1.20;;;1.10;;
53313;SDS011;39202;51.468;7.146;2023-02-28T11:51:41;1.13;;;1.13;;
53313;SDS011;39202;51.468;7.146;2023-02-28T11:56:49;1.75;;;1.40;;
53313;SDS011;39202;51.468;7.146;2023-02-28T12:02:03;1.30;;;1.20;;
53313;SDS011;39202;51.468;7.146;2023-02-28T12:07:18;1.73;;;1.27;;
53313;SDS011;39202;51.468;7.146;2023-02-28T12:12:31;1.48;;;1.30;;
53313;SDS011;39202;51.468;7.146;2023-02-28T12:17:48;1.90;;;1.35;;
53313;SDS011;39202;51.468;7.146;2023-02-28T12:23:05;1.10;;;1.10;;
53313;SDS011;39202;51.468;7.146;2023-02-28T12:28:21;1.50;;;1.25;;
53313;SDS011;39202;51.468;7.146;2023-02-28T12:33:31;1.90;;;1.25;;
53313;SDS011;39202;51.468;7.146;2023-02-28T12:38:36;1.45;;;1.30;;
53313;SDS011;39202;51.468;7.146;2023-02-28T12:43:44;1.80;;;1.30;;
53313;SDS011;39202;51.468;7.146;2023-02-28T12:48:50;1.25;;;1.25;;
53313;SDS011;39202;51.468;7.146;2023-02-28T12:53:58;1.48;;;1.23;;
53313;SDS011;39202;51.468;7.146;2023-02-28T12:59:10;1.63;;;1.20;;
53313;SDS011;39202;51.468;7.146;2023-02-28T13:04:36;1.20;;;1.10;;
53313;SDS011;39202;51.468;7.146;2023-02-28T13:10:08;0.93;;;0.93;;
53313;SDS011;39202;51.468;7.146;2023-02-28T13:15:16;1.45;;;1.08;;
53313;SDS011;39202;51.468;7.146;2023-02-28T13:20:23;1.08;;;1.08;;
53313;SDS011;39202;51.468;7.146;2023-02-28T13:31:02;0.93;;;0.93;;
53313;SDS011;39202;51.468;7.146;2023-02-28T13:36:10;1.20;;;1.10;;
53313;SDS011;39202;51.468;7.146;2023-02-28T13:41:45;1.10;;;1.00;;
53313;SDS011;39202;51.468;7.146;2023-02-28T13:52:25;1.63;;;1.08;;
53313;SDS011;39202;51.468;7.146;2023-02-28T13:57:30;0.95;;;0.95;;
53313;SDS011;39202;51.468;7.146;2023-02-28T14:02:48;1.10;;;1.00;;
53313;SDS011;39202;51.468;7.146;2023-02-28T14:08:05;0.90;;;0.90;;
53313;SDS011;39202;51.468;7.146;2023-02-28T14:18:48;0.95;;;0.80;;
53313;SDS011;39202;51.468;7.146;2023-02-28T14:29:35;0.77;;;0.77;;
53313;SDS011;39202;51.468;7.146;2023-02-28T14:34:58;0.90;;;0.90;;
53313;SDS011;39202;51.468;7.146;2023-02-28T14:40:16;0.90;;;0.90;;
53313;SDS011;39202;51.468;7.146;2023-02-28T14:45:20;1.25;;;0.93;;
53313;SDS011;39202;51.468;7.146;2023-02-28T14:50:24;1.35;;;0.95;;
53313;SDS011;39202;51.468;7.146;2023-02-28T14:55:32;0.85;;;0.85;;
53313;SDS011;39202;51.468;7.146;2023-02-28T15:00:39;1.00;;;1.00;;
53313;SDS011;39202;51.468;7.146;2023-02-28T15:05:53;0.80;;;0.80;;
53313;SDS011;39202;51.468;7.146;2023-02-28T15:10:58;1.00;;;1.00;;
53313;SDS011;39202;51.468;7.146;2023-02-28T15:16:03;0.98;;;0.98;;
53313;SDS011;39202;51.468;7.146;2023-02-28T15:21:11;0.80;;;0.80;;
53313;SDS011;39202;51.468;7.146;2023-02-28T15:26:17;0.80;;;0.80;;
53313;SDS011;39202;51.468;7.146;2023-02-28T15:31:23;1.02;;;1.00;;
53313;SDS011;39202;51.468;7.146;2023-02-28T15:36:28;0.77;;;0.77;;
53313;SDS011;39202;51.468;7.146;2023-02-28T15:41:36;1.92;;;0.88;;
53313;SDS011;39202;51.468;7.146;2023-02-28T15:46:39;2.33;;;0.70;;
53313;SDS011;39202;51.468;7.146;2023-02-28T15:51:42;1.10;;;0.90;;
53313;SDS011;39202;51.468;7.146;2023-02-28T15:56:46;1.48;;;1.00;;
53313;SDS011;39202;51.468;7.146;2023-02-28T16:02:02;0.95;;;0.82;;
53313;SDS011;39202;51.468;7.146;2023-02-28T16:07:12;1.40;;;0.95;;
53313;SDS011;39202;51.468;7.146;2023-02-28T16:12:16;0.95;;;0.95;;
53313;SDS011;39202;51.468;7.146;2023-02-28T16:17:20;0.70;;;0.70;;
53313;SDS011;39202;51.468;7.146;2023-02-28T16:22:24;0.90;;;0.90;;
53313;SDS011;39202;51.468;7.146;2023-02-28T16:27:30;1.23;;;0.90;;
53313;SDS011;39202;51.468;7.146;2023-02-28T16:32:34;2.28;;;0.90;;
53313;SDS011;39202;51.468;7.146;2023-02-28T16:37:36;1.10;;;1.00;;
53313;SDS011;39202;51.468;7.146;2023-02-28T16:42:40;1.00;;;0.90;;
53313;SDS011;39202;51.468;7.146;2023-02-28T16:47:42;1.10;;;1.00;;
53313;SDS011;39202;51.468;7.146;2023-02-28T16:52:44;0.98;;;0.98;;
53313;SDS011;39202;51.468;7.146;2023-02-28T16:57:48;0.90;;;0.90;;
53313;SDS011;39202;51.468;7.146;2023-02-28T17:02:52;0.82;;;0.82;;
53313;SDS011;39202;51.468;7.146;2023-02-28T17:07:54;1.27;;;1.00;;
53313;SDS011;39202;51.468;7.146;2023-02-28T17:12:58;0.90;;;0.90;;
53313;SDS011;39202;51.468;7.146;2023-02-28T17:17:59;1.10;;;0.90;;
53313;SDS011;39202;51.468;7.146;2023-02-28T17:23:02;0.82;;;0.82;;
53313;SDS011;39202;51.468;7.146;2023-02-28T17:28:05;0.88;;;0.88;;
53313;SDS011;39202;51.468;7.146;2023-02-28T17:33:07;1.38;;;0.80;;
53313;SDS011;39202;51.468;7.146;2023-02-28T17:38:14;1.00;;;0.85;;
53313;SDS011;39202;51.468;7.146;2023-02-28T17:43:19;1.52;;;0.75;;
53313;SDS011;39202;51.468;7.146;2023-02-28T17:48:21;0.93;;;0.73;;
53313;SDS011;39202;51.468;7.146;2023-02-28T17:53:22;0.73;;;0.73;;
53313;SDS011;39202;51.468;7.146;2023-02-28T17:58:26;0.80;;;0.80;;
53313;SDS011;39202;51.468;7.146;2023-02-28T18:03:27;0.75;;;0.75;;
53313;SDS011;39202;51.468;7.146;2023-02-28T18:08:31;0.85;;;0.85;;
53313;SDS011;39202;51.468;7.146;2023-02-28T18:13:36;0.70;;;0.70;;
53313;SDS011;39202;51.468;7.146;2023-02-28T18:18:38;1.02;;;1.00;;
53313;SDS011;39202;51.468;7.146;2023-02-28T18:23:40;0.70;;;0.70;;
53313;SDS011;39202;51.468;7.146;2023-02-28T18:28:48;0.60;;;0.60;;
53313;SDS011;39202;51.468;7.146;2023-02-28T18:33:50;0.70;;;0.70;;
53313;SDS011;39202;51.468;7.146;2023-02-28T18:38:52;0.80;;;0.80;;
53313;SDS011;39202;51.468;7.146;2023-02-28T18:43:56;0.73;;;0.73;;
53313;SDS011;39202;51.468;7.146;2023-02-28T18:49:01;0.75;;;0.75;;
53313;SDS011;39202;51.468;7.146;2023-02-28T18:54:03;0.80;;;0.80;;
53313;SDS011;39202;51.468;7.146;2023-02-28T18:59:06;0.68;;;0.68;;
53313;SDS011;39202;51.468;7.146;2023-02-28T19:04:09;0.80;;;0.80;;
53313;SDS011;39202;51.468;7.146;2023-02-28T19:09:12;0.73;;;0.73;;
53313;SDS011;39202;51.468;7.146;2023-02-28T19:14:16;0.82;;;0.82;;
53313;SDS011;39202;51.468;7.146;2023-02-28T19:19:17;0.70;;;0.70;;
53313;SDS011;39202;51.468;7.146;2023-02-28T19:24:19;0.90;;;0.90;;
53313;SDS011;39202;51.468;7.146;2023-02-28T19:29:22;0.70;;;0.70;;
53313;SDS011;39202;51.468;7.146;2023-02-28T19:34:24;1.15;;;1.00;;
53313;SDS011;39202;51.468;7.146;2023-02-28T19:39:26;0.70;;;0.70;;
53313;SDS011;39202;51.468;7.146;2023-02-28T19:44:29;0.80;;;0.80;;
53313;SDS011;39202;51.468;7.146;2023-02-28T19:49:31;0.70;;;0.70;;
53313;SDS011;39202;51.468;7.146;2023-02-28T19:54:32;0.60;;;0.60;;
53313;SDS011;39202;51.468;7.146;2023-02-28T19:59:36;0.70;;;0.70;;
53313;SDS011;39202;51.468;7.146;2023-02-28T20:04:38;0.80;;;0.80;;
53313;SDS011;39202;51.468;7.146;2023-02-28T20:09:39;0.80;;;0.80;;
53313;SDS011;39202;51.468;7.146;2023-02-28T20:14:42;0.80;;;0.80;;
53313;SDS011;39202;51.468;7.146;2023-02-28T20:19:44;0.60;;;0.60;;
53313;SDS011;39202;51.468;7.146;2023-02-28T20:24:46;0.90;;;0.90;;
53313;SDS011;39202;51.468;7.146;2023-02-28T20:29:49;0.70;;;0.70;;
53313;SDS011;39202;51.468;7.146;2023-02-28T20:34:52;0.65;;;0.65;;
53313;SDS011;39202;51.468;7.146;2023-02-28T20:39:54;0.70;;;0.70;;
53313;SDS011;39202;51.468;7.146;2023-02-28T20:44:57;0.70;;;0.70;;
53313;SDS011;39202;51.468;7.146;2023-02-28T20:49:58;0.60;;;0.60;;
53313;SDS011;39202;51.468;7.146;2023-02-28T20:55:00;0.52;;;0.52;;
53313;SDS011;39202;51.468;7.146;2023-02-28T21:00:04;0.60;;;0.60;;
53313;SDS011;39202;51.468;7.146;2023-02-28T21:05:08;1.08;;;0.77;;
53313;SDS011;39202;51.468;7.146;2023-02-28T21:10:10;0.60;;;0.60;;
53313;SDS011;39202;51.468;7.146;2023-02-28T21:15:13;0.70;;;0.70;;
53313;SDS011;39202;51.468;7.146;2023-02-28T21:20:16;0.75;;;0.75;;
53313;SDS011;39202;51.468;7.146;2023-02-28T21:25:21;0.93;;;0.63;;
53313;SDS011;39202;51.468;7.146;2023-02-28T21:30:25;0.60;;;0.60;;
53313;SDS011;39202;51.468;7.146;2023-02-28T21:35:26;0.60;;;0.60;;
53313;SDS011;39202;51.468;7.146;2023-02-28T21:40:28;0.85;;;0.85;;
53313;SDS011;39202;51.468;7.146;2023-02-28T21:45:31;0.80;;;0.80;;
53313;SDS011;39202;51.468;7.146;2023-02-28T21:50:34;0.68;;;0.68;;
53313;SDS011;39202;51.468;7.146;2023-02-28T21:55:36;0.60;;;0.60;;
53313;SDS011;39202;51.468;7.146;2023-02-28T22:00:39;0.60;;;0.60;;
53313;SDS011;39202;51.468;7.146;2023-02-28T22:05:41;0.60;;;0.60;;
53313;SDS011;39202;51.468;7.146;2023-02-28T22:10:42;0.82;;;0.82;;
53313;SDS011;39202;51.468;7.146;2023-02-28T22:15:45;0.70;;;0.70;;
53313;SDS011;39202;51.468;7.146;2023-02-28T22:20:52;0.60;;;0.60;;
53313;SDS011;39202;51.468;7.146;2023-02-28T22:25:54;0.60;;;0.60;;
53313;SDS011;39202;51.468;7.146;2023-02-28T22:30:58;0.65;;;0.65;;
53313;SDS011;39202;51.468;7.146;2023-02-28T22:36:03;0.60;;;0.60;;
53313;SDS011;39202;51.468;7.146;2023-02-28T22:41:05;0.65;;;0.65;;
53313;SDS011;39202;51.468;7.146;2023-02-28T22:46:10;0.60;;;0.60;;
53313;SDS011;39202;51.468;7.146;2023-02-28T22:51:13;0.88;;;0.65;;
53313;SDS011;39202;51.468;7.146;2023-02-28T22:56:17;0.52;;;0.52;;
53313;SDS011;39202;51.468;7.146;2023-02-28T23:01:22;0.68;;;0.68;;
53313;SDS011;39202;51.468;7.146;2023-02-28T23:06:26;0.70;;;0.70;;
53313;SDS011;39202;51.468;7.146;2023-02-28T23:11:30;0.60;;;0.60;;
53313;SDS011;39202;51.468;7.146;2023-02-28T23:16:35;0.60;;;0.60;;
53313;SDS011;39202;51.468;7.146;2023-02-28T23:21:37;0.75;;;0.75;;
53313;SDS011;39202;51.468;7.146;2023-02-28T23:26:41;0.70;;;0.70;;
53313;SDS011;39202;51.468;7.146;2023-02-28T23:31:45;0.82;;;0.82;;
53313;SDS011;39202;51.468;7.146;2023-02-28T23:36:47;0.70;;;0.70;;
53313;SDS011;39202;51.468;7.146;2023-02-28T23:41:50;0.73;;;0.73;;
53313;SDS011;39202;51.468;7.146;2023-02-28T23:46:53;0.80;;;0.80;;
53313;SDS011;39202;51.468;7.146;2023-02-28T23:51:55;0.80;;;0.80;;
53313;SDS011;39202;51.468;7.146;2023-02-28T23:56:56;0.70;;;0.70;;
